Time;durP1;ratioP1;P1;durP2;ratioP2;P2;SDS_P1;SDS_P2;PMS_P1;PMS_P2;Temp;Humidity;BMP_temperature;BMP_pressure;BME280_temperature;BME280_humidity;BME280_pressure;Samples;Min_cycle;Max_cycle;Signal;HPM_P1;HPM_P2
2024/01/26 00:00:21;;;;;;;16.98;12.00;;;;;;;;;;5010015;28;20191;-71
2024/01/26 00:02:46;;;;;;;17.23;11.48;;;;;;;;;;5007378;28;20184;-71
2024/01/26 00:05:11;;;;;;;21.03;10.73;;;;;;;;;;5001498;28;20298;-71
2024/01/26 00:07:36;;;;;;;15.27;10.43;;;;;;;;;;5010776;28;20182;-70
2024/01/26 00:10:02;;;;;;;16.60;11.25;;;;;;;;;;5011040;28;20180;-70
2024/01/26 00:12:28;;;;;;;16.52;9.85;;;;;;;;;;5011620;28;20170;-71
2024/01/26 00:14:53;;;;;;;15.15;8.57;;;;;;;;;;4993623;28;20342;-70
2024/01/26 00:17:18;;;;;;;12.68;8.10;;;;;;;;;;5011262;28;20269;-71
2024/01/26 00:19:43;;;;;;;13.07;8.88;;;;;;;;;;5010508;28;20225;-71
2024/01/26 00:22:09;;;;;;;15.27;8.43;;;;;;;;;;5010464;28;20179;-70
2024/01/26 00:24:34;;;;;;;14.02;7.68;;;;;;;;;;5002733;28;20210;-71
2024/01/26 00:26:59;;;;;;;13.15;8.55;;;;;;;;;;4993846;28;20241;-71
2024/01/26 00:29:24;;;;;;;12.25;7.47;;;;;;;;;;5011900;28;20551;-70
2024/01/26 00:31:50;;;;;;;11.63;8.13;;;;;;;;;;5010766;28;20349;-70
2024/01/26 00:34:15;;;;;;;14.57;8.18;;;;;;;;;;5011710;28;20229;-70
2024/01/26 00:36:40;;;;;;;12.48;8.13;;;;;;;;;;5010204;28;20194;-71
2024/01/26 00:39:07;;;;;;;12.90;7.70;;;;;;;;;;5011287;28;20631;-71
2024/01/26 00:41:32;;;;;;;11.27;7.85;;;;;;;;;;5005003;28;20179;-71
2024/01/26 00:43:58;;;;;;;14.23;8.90;;;;;;;;;;5005493;28;20705;-71
2024/01/26 00:46:23;;;;;;;12.55;8.30;;;;;;;;;;4999877;28;20272;-70
2024/01/26 00:48:48;;;;;;;11.85;7.97;;;;;;;;;;5003160;28;20232;-70
2024/01/26 00:51:13;;;;;;;14.02;8.70;;;;;;;;;;5011223;28;20202;-71
2024/01/26 00:53:38;;;;;;;10.80;7.15;;;;;;;;;;5010178;28;20556;-71
2024/01/26 00:56:04;;;;;;;11.88;7.57;;;;;;;;;;5011114;28;20697;-71
2024/01/26 00:58:29;;;;;;;12.82;7.57;;;;;;;;;;5010907;28;20262;-70
2024/01/26 01:00:54;;;;;;;13.15;8.43;;;;;;;;;;5011170;28;20177;-71
2024/01/26 01:03:19;;;;;;;12.02;7.50;;;;;;;;;;5010084;28;20546;-71
2024/01/26 01:05:44;;;;;;;12.30;7.35;;;;;;;;;;4999143;28;20245;-70
2024/01/26 01:08:10;;;;;;;10.25;6.50;;;;;;;;;;4991956;28;20233;-71
2024/01/26 01:10:36;;;;;;;10.40;6.85;;;;;;;;;;5011129;28;20171;-71
2024/01/26 01:13:04;;;;;;;8.98;6.15;;;;;;;;;;4992926;28;20179;-71
2024/01/26 01:15:29;;;;;;;10.07;6.18;;;;;;;;;;5009339;28;20645;-71
2024/01/26 01:17:54;;;;;;;9.00;6.45;;;;;;;;;;5011600;28;20183;-71
2024/01/26 01:20:20;;;;;;;11.25;6.47;;;;;;;;;;5006674;28;20183;-70
2024/01/26 01:22:45;;;;;;;8.45;5.88;;;;;;;;;;4999993;28;20571;-69
2024/01/26 01:25:13;;;;;;;10.10;6.13;;;;;;;;;;5010628;28;20638;-72
2024/01/26 01:27:39;;;;;;;11.95;7.13;;;;;;;;;;5011112;28;20658;-71
2024/01/26 01:30:05;;;;;;;11.43;5.70;;;;;;;;;;5010760;28;20246;-71
2024/01/26 01:32:30;;;;;;;10.73;6.90;;;;;;;;;;5010273;28;20191;-71
2024/01/26 01:34:56;;;;;;;9.40;6.20;;;;;;;;;;5010151;28;20687;-70
2024/01/26 01:37:21;;;;;;;8.90;6.20;;;;;;;;;;4994215;28;20198;-72
2024/01/26 01:39:47;;;;;;;10.43;6.82;;;;;;;;;;5012412;28;20179;-69
2024/01/26 01:42:14;;;;;;;8.50;5.85;;;;;;;;;;5004087;28;20554;-72
2024/01/26 01:44:42;;;;;;;8.73;5.80;;;;;;;;;;5010138;28;20338;-71
2024/01/26 01:47:11;;;;;;;10.13;5.88;;;;;;;;;;5013830;28;20175;-71
2024/01/26 01:49:39;;;;;;;9.95;5.65;;;;;;;;;;5012420;28;20270;-71
2024/01/26 01:52:08;;;;;;;8.73;5.22;;;;;;;;;;5008918;28;20561;-71
2024/01/26 01:54:33;;;;;;;7.15;5.35;;;;;;;;;;5013468;28;20626;-70
2024/01/26 01:57:01;;;;;;;8.93;5.22;;;;;;;;;;5013657;28;20269;-73
2024/01/26 01:59:26;;;;;;;7.57;4.15;;;;;;;;;;5013207;28;20266;-70
2024/01/26 02:01:52;;;;;;;9.00;4.97;;;;;;;;;;4998773;28;20262;-70
2024/01/26 02:04:17;;;;;;;6.75;4.22;;;;;;;;;;5011285;28;20183;-72
2024/01/26 02:06:52;;;;;;;5.93;3.95;;;;;;;;;;5013731;28;20171;-70
2024/01/26 02:09:17;;;;;;;8.82;4.88;;;;;;;;;;5004974;28;20186;-71
2024/01/26 02:11:42;;;;;;;9.95;4.68;;;;;;;;;;5014007;28;20181;-71
2024/01/26 02:14:07;;;;;;;6.47;4.25;;;;;;;;;;4996235;28;20774;-71
2024/01/26 02:16:33;;;;;;;7.32;5.35;;;;;;;;;;5013254;28;20206;-72
2024/01/26 02:18:58;;;;;;;7.80;4.70;;;;;;;;;;5012831;28;20210;-71
2024/01/26 02:21:23;;;;;;;5.28;4.47;;;;;;;;;;5001248;28;20201;-71
2024/01/26 02:23:48;;;;;;;6.55;4.88;;;;;;;;;;5009656;28;20269;-72
2024/01/26 02:26:13;;;;;;;7.65;5.60;;;;;;;;;;5013744;28;20599;-70
2024/01/26 02:28:38;;;;;;;7.68;5.35;;;;;;;;;;5011193;28;20191;-71
2024/01/26 02:31:04;;;;;;;7.10;5.10;;;;;;;;;;5014276;28;20218;-71
2024/01/26 02:33:29;;;;;;;11.05;5.20;;;;;;;;;;5013147;28;20186;-72
2024/01/26 02:35:54;;;;;;;10.57;7.00;;;;;;;;;;5013514;28;20206;-72
2024/01/26 02:38:19;;;;;;;10.82;6.47;;;;;;;;;;5004055;28;20651;-69
2024/01/26 02:40:44;;;;;;;13.27;6.90;;;;;;;;;;5011786;28;20266;-71
2024/01/26 02:43:10;;;;;;;11.15;6.72;;;;;;;;;;5013479;28;20183;-70
2024/01/26 02:45:36;;;;;;;12.85;7.57;;;;;;;;;;5008483;28;20218;-70
2024/01/26 02:48:01;;;;;;;14.80;7.85;;;;;;;;;;5012008;28;20175;-71
2024/01/26 02:50:26;;;;;;;13.68;8.02;;;;;;;;;;4995398;28;20185;-70
2024/01/26 02:52:51;;;;;;;13.70;7.65;;;;;;;;;;4995762;28;20171;-71
2024/01/26 02:55:16;;;;;;;10.95;8.07;;;;;;;;;;5012903;28;20312;-71
2024/01/26 02:57:42;;;;;;;15.32;9.02;;;;;;;;;;4991822;28;20593;-71
2024/01/26 03:00:07;;;;;;;13.80;8.95;;;;;;;;;;5004260;28;20210;-71
2024/01/26 03:02:33;;;;;;;11.85;8.05;;;;;;;;;;5013467;28;20249;-71
2024/01/26 03:04:58;;;;;;;12.00;8.23;;;;;;;;;;4995273;28;20341;-72
2024/01/26 03:07:23;;;;;;;14.27;8.25;;;;;;;;;;4995292;28;20214;-71
2024/01/26 03:09:48;;;;;;;15.02;9.88;;;;;;;;;;5009577;28;20663;-71
2024/01/26 03:12:14;;;;;;;12.50;8.40;;;;;;;;;;4989019;28;20179;-71
2024/01/26 03:14:39;;;;;;;14.00;8.40;;;;;;;;;;5011353;28;20202;-70
2024/01/26 03:17:04;;;;;;;16.05;8.00;;;;;;;;;;4994937;28;20186;-71
2024/01/26 03:19:34;;;;;;;11.05;7.30;;;;;;;;;;5011822;28;20187;-69
2024/01/26 03:22:00;;;;;;;11.65;7.35;;;;;;;;;;5012963;28;20759;-72
2024/01/26 03:24:25;;;;;;;15.20;8.13;;;;;;;;;;5012577;28;20183;-70
2024/01/26 03:26:50;;;;;;;11.05;8.00;;;;;;;;;;5012329;28;20175;-70
2024/01/26 03:29:15;;;;;;;12.65;7.75;;;;;;;;;;5007280;28;20206;-71
2024/01/26 03:31:40;;;;;;;12.63;7.82;;;;;;;;;;5008311;28;20181;-71
2024/01/26 03:34:06;;;;;;;13.60;8.00;;;;;;;;;;5012424;28;20171;-71
2024/01/26 03:36:31;;;;;;;10.07;7.30;;;;;;;;;;5011887;28;20505;-71
2024/01/26 03:38:57;;;;;;;15.05;8.18;;;;;;;;;;5009075;28;20171;-71
2024/01/26 03:41:22;;;;;;;13.65;8.50;;;;;;;;;;5012354;28;20600;-72
2024/01/26 03:43:51;;;;;;;14.75;8.55;;;;;;;;;;5012483;28;20176;-70
2024/01/26 03:46:16;;;;;;;11.70;7.38;;;;;;;;;;5019840;23;20231;-67
2024/01/26 03:48:42;;;;;;;13.40;7.97;;;;;;;;;;5019505;28;20717;-69
2024/01/26 03:51:07;;;;;;;12.77;7.63;;;;;;;;;;4997095;28;20170;-68
2024/01/26 03:53:32;;;;;;;13.18;8.68;;;;;;;;;;5012056;28;20187;-68
2024/01/26 03:55:57;;;;;;;11.55;8.20;;;;;;;;;;5011717;28;20222;-68
2024/01/26 03:58:22;;;;;;;17.40;9.38;;;;;;;;;;5010935;28;20640;-68
2024/01/26 04:00:47;;;;;;;17.10;9.75;;;;;;;;;;5013344;28;20174;-68
2024/01/26 04:03:13;;;;;;;12.20;8.93;;;;;;;;;;5005241;28;20647;-68
2024/01/26 04:05:39;;;;;;;11.55;8.65;;;;;;;;;;4985903;28;20815;-68
2024/01/26 04:08:04;;;;;;;13.80;9.32;;;;;;;;;;5008087;28;20191;-68
2024/01/26 04:10:30;;;;;;;15.63;9.73;;;;;;;;;;5005300;28;20317;-69
2024/01/26 04:12:55;;;;;;;15.10;9.35;;;;;;;;;;5013389;28;20266;-69
2024/01/26 04:15:21;;;;;;;13.82;9.40;;;;;;;;;;5015081;28;20285;-68
2024/01/26 04:17:46;;;;;;;14.73;10.23;;;;;;;;;;5011433;28;20186;-69
2024/01/26 04:20:11;;;;;;;19.00;10.25;;;;;;;;;;5012426;28;20191;-68
2024/01/26 04:22:36;;;;;;;16.63;9.90;;;;;;;;;;4997485;28;20663;-69
2024/01/26 04:25:01;;;;;;;15.77;10.05;;;;;;;;;;5001006;28;21246;-68
2024/01/26 04:27:27;;;;;;;13.93;9.70;;;;;;;;;;5004515;28;20256;-68
2024/01/26 04:29:52;;;;;;;17.67;10.20;;;;;;;;;;5011892;28;20610;-68
2024/01/26 04:32:18;;;;;;;16.15;10.02;;;;;;;;;;5010624;28;20187;-68
2024/01/26 04:34:45;;;;;;;16.67;10.32;;;;;;;;;;5011920;28;20230;-69
2024/01/26 04:37:10;;;;;;;16.35;10.95;;;;;;;;;;5011381;28;20175;-67
2024/01/26 04:39:35;;;;;;;17.15;10.73;;;;;;;;;;5011209;28;20178;-69
2024/01/26 04:42:00;;;;;;;17.52;11.10;;;;;;;;;;5003302;28;20183;-69
2024/01/26 04:44:25;;;;;;;22.10;10.90;;;;;;;;;;5002837;28;20249;-68
2024/01/26 04:46:53;;;;;;;18.02;11.00;;;;;;;;;;5007565;28;20183;-68
2024/01/26 04:49:18;;;;;;;14.88;10.10;;;;;;;;;;4993412;28;20187;-68
2024/01/26 04:51:43;;;;;;;17.13;11.68;;;;;;;;;;5012420;28;20205;-68
2024/01/26 04:54:08;;;;;;;19.90;11.63;;;;;;;;;;5011269;28;20190;-68
2024/01/26 04:56:34;;;;;;;14.68;11.25;;;;;;;;;;5010711;28;20226;-68
2024/01/26 04:58:59;;;;;;;18.08;11.63;;;;;;;;;;5011096;28;20305;-68
2024/01/26 05:01:24;;;;;;;15.77;11.32;;;;;;;;;;4991229;28;20190;-68
2024/01/26 05:03:50;;;;;;;20.80;11.25;;;;;;;;;;5002848;28;20650;-68
2024/01/26 05:06:15;;;;;;;16.08;10.88;;;;;;;;;;5009750;28;20225;-68
2024/01/26 05:08:40;;;;;;;15.07;10.68;;;;;;;;;;5008925;28;20183;-69
2024/01/26 05:11:06;;;;;;;21.02;11.32;;;;;;;;;;5009363;28;20178;-69
2024/01/26 05:13:31;;;;;;;16.50;11.15;;;;;;;;;;5014363;28;20182;-69
2024/01/26 05:15:56;;;;;;;17.98;11.75;;;;;;;;;;5013534;28;20301;-69
2024/01/26 05:18:21;;;;;;;16.20;11.15;;;;;;;;;;5008317;28;20171;-68
2024/01/26 05:20:46;;;;;;;15.77;10.13;;;;;;;;;;5012379;28;20265;-69
2024/01/26 05:23:12;;;;;;;16.65;12.07;;;;;;;;;;4996016;28;20178;-68
2024/01/26 05:25:37;;;;;;;17.27;11.30;;;;;;;;;;5013305;28;20199;-69
2024/01/26 05:28:02;;;;;;;18.20;12.32;;;;;;;;;;5013719;28;20258;-68
2024/01/26 05:30:27;;;;;;;19.50;10.52;;;;;;;;;;5013090;28;20189;-69
2024/01/26 05:32:53;;;;;;;16.60;11.00;;;;;;;;;;5012280;28;20179;-69
2024/01/26 05:35:18;;;;;;;15.80;10.60;;;;;;;;;;5010211;28;20269;-69
2024/01/26 05:37:43;;;;;;;14.35;10.10;;;;;;;;;;5012113;28;20183;-68
2024/01/26 05:40:09;;;;;;;14.90;10.90;;;;;;;;;;5013598;28;20183;-68
2024/01/26 05:42:34;;;;;;;14.57;10.07;;;;;;;;;;5013198;28;20201;-69
2024/01/26 05:45:01;;;;;;;18.77;10.68;;;;;;;;;;5012301;28;20218;-69
2024/01/26 05:47:27;;;;;;;17.05;10.60;;;;;;;;;;5013471;28;20266;-68
2024/01/26 05:49:52;;;;;;;18.42;11.60;;;;;;;;;;5012577;28;20286;-69
2024/01/26 05:52:17;;;;;;;17.45;10.30;;;;;;;;;;5013158;28;20405;-68
2024/01/26 05:54:42;;;;;;;17.25;11.02;;;;;;;;;;4986138;28;20195;-69
2024/01/26 05:57:08;;;;;;;15.88;10.40;;;;;;;;;;4987292;28;20269;-68
2024/01/26 05:59:36;;;;;;;12.45;9.40;;;;;;;;;;5004414;28;20178;-68
2024/01/26 06:02:03;;;;;;;14.90;9.32;;;;;;;;;;5002793;28;20168;-69
2024/01/26 06:04:28;;;;;;;14.13;9.13;;;;;;;;;;5005024;28;20242;-69
2024/01/26 06:06:53;;;;;;;12.77;9.30;;;;;;;;;;5004593;28;20840;-69
2024/01/26 06:09:18;;;;;;;12.60;8.85;;;;;;;;;;5002278;28;20217;-69
2024/01/26 06:11:43;;;;;;;14.88;9.45;;;;;;;;;;4987882;28;20187;-69
2024/01/26 06:14:09;;;;;;;14.23;8.50;;;;;;;;;;5005386;28;20171;-69
2024/01/26 06:16:34;;;;;;;13.00;9.63;;;;;;;;;;5003297;28;20215;-68
2024/01/26 06:19:00;;;;;;;15.30;9.07;;;;;;;;;;5006380;28;20265;-69
2024/01/26 06:21:25;;;;;;;14.85;9.45;;;;;;;;;;4988342;28;20179;-69
2024/01/26 06:23:50;;;;;;;14.10;8.30;;;;;;;;;;5011144;28;20182;-69
2024/01/26 06:26:15;;;;;;;13.65;9.00;;;;;;;;;;5006888;28;20729;-69
2024/01/26 06:28:41;;;;;;;13.25;8.90;;;;;;;;;;5009388;28;20183;-69
2024/01/26 06:31:06;;;;;;;13.35;9.15;;;;;;;;;;5012731;28;20186;-69
2024/01/26 06:33:32;;;;;;;12.45;8.63;;;;;;;;;;5011935;28;20267;-69
2024/01/26 06:35:57;;;;;;;13.77;9.52;;;;;;;;;;5012299;28;20226;-69
2024/01/26 06:38:23;;;;;;;13.98;8.30;;;;;;;;;;4991986;28;20175;-69
2024/01/26 06:40:48;;;;;;;14.68;9.70;;;;;;;;;;5007149;28;26862;-68
2024/01/26 06:43:16;;;;;;;13.02;9.27;;;;;;;;;;5006447;28;20189;-69
2024/01/26 06:45:41;;;;;;;11.93;8.45;;;;;;;;;;5004215;28;20242;-69
2024/01/26 06:48:06;;;;;;;15.60;8.98;;;;;;;;;;5006822;28;20218;-68
2024/01/26 06:50:33;;;;;;;11.82;8.48;;;;;;;;;;5003081;28;20206;-69
2024/01/26 06:52:58;;;;;;;13.40;9.50;;;;;;;;;;5004513;28;20179;-69
2024/01/26 06:55:24;;;;;;;17.13;10.63;;;;;;;;;;4994064;28;20613;-69
2024/01/26 06:57:49;;;;;;;15.65;10.23;;;;;;;;;;5009033;28;20175;-69
2024/01/26 07:00:14;;;;;;;19.00;11.00;;;;;;;;;;4998456;28;20179;-69
2024/01/26 07:02:39;;;;;;;13.52;10.40;;;;;;;;;;5013234;28;20187;-69
2024/01/26 07:05:05;;;;;;;13.88;9.68;;;;;;;;;;4994065;28;20207;-69
2024/01/26 07:07:30;;;;;;;13.30;10.27;;;;;;;;;;4993112;28;20184;-69
2024/01/26 07:09:55;;;;;;;16.52;9.52;;;;;;;;;;5004107;28;20179;-69
2024/01/26 07:12:21;;;;;;;14.00;9.60;;;;;;;;;;4993369;28;20658;-69
2024/01/26 07:14:46;;;;;;;11.40;8.65;;;;;;;;;;5006049;28;20235;-69
2024/01/26 07:17:11;;;;;;;14.00;9.35;;;;;;;;;;4996190;28;20612;-69
2024/01/26 07:19:36;;;;;;;10.90;8.80;;;;;;;;;;5011085;28;20603;-70
2024/01/26 07:22:02;;;;;;;11.18;8.27;;;;;;;;;;4999955;28;20643;-69
2024/01/26 07:24:27;;;;;;;13.52;9.05;;;;;;;;;;5005829;28;20760;-69
2024/01/26 07:26:52;;;;;;;13.63;8.73;;;;;;;;;;4999791;28;20208;-69
2024/01/26 07:29:17;;;;;;;11.90;8.85;;;;;;;;;;5005719;28;20261;-69
2024/01/26 07:31:44;;;;;;;14.75;8.93;;;;;;;;;;4998329;28;20639;-69
2024/01/26 07:34:10;;;;;;;12.48;9.48;;;;;;;;;;4997412;28;20266;-68
2024/01/26 07:36:36;;;;;;;11.50;8.50;;;;;;;;;;4980509;28;20752;-69
2024/01/26 07:39:02;;;;;;;12.02;8.40;;;;;;;;;;4997826;28;20175;-70
2024/01/26 07:41:27;;;;;;;12.65;9.23;;;;;;;;;;5000528;28;20183;-70
2024/01/26 07:43:52;;;;;;;13.80;8.98;;;;;;;;;;5009954;28;20651;-69
2024/01/26 07:46:18;;;;;;;11.70;8.32;;;;;;;;;;5013125;28;20581;-67
2024/01/26 07:48:43;;;;;;;12.80;8.70;;;;;;;;;;4986993;28;20623;-68
2024/01/26 07:51:08;;;;;;;13.77;8.82;;;;;;;;;;4988134;28;20176;-69
2024/01/26 07:53:33;;;;;;;11.48;8.95;;;;;;;;;;4999430;28;20182;-68
2024/01/26 07:55:59;;;;;;;11.73;8.05;;;;;;;;;;5020422;28;20294;-70
2024/01/26 07:58:24;;;;;;;12.30;9.18;;;;;;;;;;5007683;28;20176;-69
2024/01/26 08:00:49;;;;;;;11.65;8.07;;;;;;;;;;5008190;28;20167;-69
2024/01/26 08:03:14;;;;;;;10.63;7.10;;;;;;;;;;5006573;28;20175;-69
2024/01/26 08:05:39;;;;;;;14.38;7.55;;;;;;;;;;5010140;28;20198;-69
2024/01/26 08:08:05;;;;;;;12.63;7.72;;;;;;;;;;5005860;28;20571;-69
2024/01/26 08:10:30;;;;;;;11.85;7.45;;;;;;;;;;5007187;28;20232;-69
2024/01/26 08:12:55;;;;;;;11.07;8.15;;;;;;;;;;4993562;28;20179;-68
2024/01/26 08:15:21;;;;;;;10.15;7.45;;;;;;;;;;5006557;28;20283;-69
2024/01/26 08:17:47;;;;;;;12.52;7.55;;;;;;;;;;5010473;28;20276;-69
2024/01/26 08:20:12;;;;;;;11.40;7.22;;;;;;;;;;5013609;28;20205;-69
2024/01/26 08:22:40;;;;;;;12.57;6.50;;;;;;;;;;5012937;28;20174;-70
2024/01/26 08:25:06;;;;;;;11.95;6.35;;;;;;;;;;5021964;28;20199;-69
2024/01/26 08:27:32;;;;;;;9.25;6.53;;;;;;;;;;4996010;28;20207;-69
2024/01/26 08:29:58;;;;;;;11.35;6.63;;;;;;;;;;5021831;28;20199;-69
2024/01/26 08:32:23;;;;;;;10.27;5.25;;;;;;;;;;4990582;28;20260;-68
2024/01/26 08:34:48;;;;;;;8.95;4.10;;;;;;;;;;5002161;28;20253;-69
2024/01/26 08:37:14;;;;;;;8.50;4.38;;;;;;;;;;5009340;28;20418;-68
2024/01/26 08:39:42;;;;;;;7.97;3.25;;;;;;;;;;4996373;28;20581;-69
2024/01/26 08:42:07;;;;;;;10.85;3.83;;;;;;;;;;4993683;28;20763;-68
2024/01/26 08:44:33;;;;;;;13.00;3.30;;;;;;;;;;4994704;28;20250;-69
2024/01/26 08:46:58;;;;;;;10.18;3.22;;;;;;;;;;5002797;28;20178;-68
2024/01/26 08:49:23;;;;;;;8.38;2.60;;;;;;;;;;4991312;28;20658;-69
2024/01/26 08:51:50;;;;;;;11.48;2.95;;;;;;;;;;5000368;28;20196;-69
2024/01/26 08:54:15;;;;;;;8.02;3.15;;;;;;;;;;4993370;28;20325;-69
2024/01/26 08:56:41;;;;;;;13.73;2.92;;;;;;;;;;5008679;28;20344;-69
2024/01/26 08:59:07;;;;;;;6.40;2.30;;;;;;;;;;4992717;28;20674;-68
2024/01/26 09:01:34;;;;;;;7.53;2.03;;;;;;;;;;5004608;28;20183;-70
2024/01/26 09:04:00;;;;;;;6.97;1.70;;;;;;;;;;4998313;28;20183;-69
2024/01/26 09:06:25;;;;;;;5.60;1.50;;;;;;;;;;5010610;28;20206;-68
2024/01/26 09:08:50;;;;;;;14.03;2.40;;;;;;;;;;5006495;28;20187;-69
2024/01/26 09:11:15;;;;;;;7.93;1.53;;;;;;;;;;4989963;28;20221;-69
2024/01/26 09:13:41;;;;;;;7.10;2.00;;;;;;;;;;5006263;28;20186;-69
2024/01/26 09:16:09;;;;;;;7.87;1.80;;;;;;;;;;4989868;28;20273;-70
2024/01/26 09:18:34;;;;;;;7.68;2.05;;;;;;;;;;5010863;28;20179;-69
2024/01/26 09:20:59;;;;;;;6.20;2.08;;;;;;;;;;5007886;28;20266;-69
2024/01/26 09:23:25;;;;;;;13.75;2.20;;;;;;;;;;5001405;28;20267;-69
2024/01/26 09:25:50;;;;;;;11.02;2.00;;;;;;;;;;5005746;28;20221;-69
2024/01/26 09:28:15;;;;;;;10.07;2.08;;;;;;;;;;5010093;28;20599;-69
2024/01/26 09:30:40;;;;;;;8.27;1.23;;;;;;;;;;4998452;28;20225;-69
2024/01/26 09:33:06;;;;;;;1.90;0.70;;;;;;;;;;5015660;28;20183;-69
2024/01/26 09:35:31;;;;;;;2.60;0.77;;;;;;;;;;5015192;28;20205;-69
2024/01/26 09:37:56;;;;;;;9.50;0.90;;;;;;;;;;5018437;28;20179;-70
2024/01/26 09:40:22;;;;;;;6.63;1.47;;;;;;;;;;5010510;28;20171;-70
2024/01/26 09:42:48;;;;;;;2.17;0.63;;;;;;;;;;5010599;28;20201;-69
2024/01/26 09:45:13;;;;;;;5.80;1.00;;;;;;;;;;5029435;23;20256;-70
2024/01/26 09:47:39;;;;;;;8.60;1.43;;;;;;;;;;5022652;28;20187;-71
2024/01/26 09:50:05;;;;;;;6.57;1.00;;;;;;;;;;5026455;28;20178;-71
2024/01/26 09:52:31;;;;;;;6.43;2.20;;;;;;;;;;5012963;28;20170;-72
2024/01/26 09:54:59;;;;;;;7.97;1.30;;;;;;;;;;5027688;28;20178;-72
2024/01/26 09:57:25;;;;;;;9.27;1.67;;;;;;;;;;5012973;28;20717;-71
2024/01/26 09:59:50;;;;;;;7.53;1.40;;;;;;;;;;5033816;28;20181;-71
2024/01/26 10:02:21;;;;;;;5.73;1.50;;;;;;;;;;5017037;28;20269;-71
2024/01/26 10:04:46;;;;;;;8.20;2.30;;;;;;;;;;5034065;28;20212;-71
2024/01/26 10:07:11;;;;;;;7.53;1.90;;;;;;;;;;5026251;28;20175;-73
2024/01/26 10:09:37;;;;;;;5.63;1.30;;;;;;;;;;5031685;28;20174;-72
2024/01/26 10:12:02;;;;;;;8.70;2.23;;;;;;;;;;5015569;28;20552;-71
2024/01/26 10:14:28;;;;;;;5.87;1.33;;;;;;;;;;5033306;28;20190;-71
2024/01/26 10:16:57;;;;;;;7.60;1.63;;;;;;;;;;5008342;28;20215;-72
2024/01/26 10:19:23;;;;;;;3.38;0.98;;;;;;;;;;5033256;28;20551;-71
2024/01/26 10:21:48;;;;;;;4.07;1.85;;;;;;;;;;5014592;28;20607;-71
2024/01/26 10:24:17;;;;;;;6.97;1.30;;;;;;;;;;5015228;28;20182;-71
2024/01/26 10:26:42;;;;;;;4.90;1.52;;;;;;;;;;5032962;28;20197;-72
2024/01/26 10:29:09;;;;;;;5.07;1.70;;;;;;;;;;5033164;28;20183;-72
2024/01/26 10:31:35;;;;;;;7.93;1.10;;;;;;;;;;5033340;28;20190;-73
2024/01/26 10:34:00;;;;;;;8.75;1.35;;;;;;;;;;5015000;28;20189;-72
2024/01/26 10:36:26;;;;;;;6.78;1.33;;;;;;;;;;5032590;28;20209;-72
2024/01/26 10:38:51;;;;;;;7.40;0.95;;;;;;;;;;5031884;28;20600;-71
2024/01/26 10:41:19;;;;;;;6.88;1.08;;;;;;;;;;5031133;28;20186;-71
2024/01/26 10:43:45;;;;;;;5.13;0.93;;;;;;;;;;5014795;28;20179;-71
2024/01/26 10:46:10;;;;;;;10.30;1.65;;;;;;;;;;5020504;28;20228;-71
2024/01/26 10:48:36;;;;;;;4.65;1.60;;;;;;;;;;5026152;28;20181;-72
2024/01/26 10:51:02;;;;;;;6.03;1.33;;;;;;;;;;5032494;28;20186;-72
2024/01/26 10:53:27;;;;;;;6.63;1.83;;;;;;;;;;5032579;28;20650;-71
2024/01/26 10:55:52;;;;;;;9.13;1.23;;;;;;;;;;5030926;28;20209;-71
2024/01/26 10:58:18;;;;;;;7.50;1.30;;;;;;;;;;5014887;28;20182;-71
2024/01/26 11:00:43;;;;;;;8.23;1.43;;;;;;;;;;5032699;28;20190;-71
2024/01/26 11:03:09;;;;;;;7.73;1.33;;;;;;;;;;5037443;28;20549;-72
2024/01/26 11:05:34;;;;;;;9.47;1.80;;;;;;;;;;5032307;28;20201;-72
2024/01/26 11:08:01;;;;;;;10.43;2.30;;;;;;;;;;5008966;28;20179;-71
2024/01/26 11:10:28;;;;;;;3.30;1.10;;;;;;;;;;5021510;28;20181;-73
2024/01/26 11:13:05;;;;;;;6.80;1.63;;;;;;;;;;5030825;28;20178;-72
2024/01/26 11:15:31;;;;;;;4.63;1.80;;;;;;;;;;5028571;28;20208;-72
2024/01/26 11:17:57;;;;;;;7.57;1.20;;;;;;;;;;5032322;28;20179;-72
2024/01/26 11:20:28;;;;;;;5.43;1.43;;;;;;;;;;5032232;28;20546;-72
2024/01/26 11:23:00;;;;;;;7.70;1.53;;;;;;;;;;5014844;28;20178;-72
2024/01/26 11:25:25;;;;;;;9.90;1.93;;;;;;;;;;5031741;28;20709;-71
2024/01/26 11:27:58;;;;;;;6.43;1.77;;;;;;;;;;5031894;28;20265;-71
2024/01/26 11:30:23;;;;;;;4.00;1.40;;;;;;;;;;5005682;28;20261;-72
2024/01/26 11:32:49;;;;;;;7.03;1.20;;;;;;;;;;5011143;28;20293;-71
2024/01/26 11:35:15;;;;;;;7.37;1.67;;;;;;;;;;5031936;28;20267;-72
2024/01/26 11:37:41;;;;;;;7.57;1.83;;;;;;;;;;5030634;28;20649;-72
2024/01/26 11:40:08;;;;;;;9.83;1.43;;;;;;;;;;5031823;28;20182;-71
2024/01/26 11:42:33;;;;;;;4.17;1.53;;;;;;;;;;5032092;28;20642;-72
2024/01/26 11:45:08;;;;;;;8.73;1.97;;;;;;;;;;5029353;28;20258;-71
2024/01/26 11:47:36;;;;;;;4.33;1.80;;;;;;;;;;5025760;28;20173;-71
2024/01/26 11:50:02;;;;;;;6.73;2.33;;;;;;;;;;5032330;28;20190;-71
2024/01/26 11:52:27;;;;;;;9.03;2.10;;;;;;;;;;5032368;28;20251;-71
2024/01/26 11:54:52;;;;;;;8.53;1.50;;;;;;;;;;5030413;28;20201;-71
2024/01/26 11:57:18;;;;;;;8.80;1.97;;;;;;;;;;5031827;28;20170;-71
2024/01/26 11:59:43;;;;;;;7.83;2.17;;;;;;;;;;5014502;28;20182;-71
2024/01/26 12:02:08;;;;;;;11.03;1.80;;;;;;;;;;5015398;28;20166;-71
2024/01/26 12:04:34;;;;;;;10.80;1.70;;;;;;;;;;5031582;28;20730;-71
2024/01/26 12:06:59;;;;;;;11.70;1.87;;;;;;;;;;5013168;28;20584;-71
2024/01/26 12:09:24;;;;;;;8.83;1.53;;;;;;;;;;5031687;28;20265;-71
2024/01/26 12:11:50;;;;;;;7.87;1.70;;;;;;;;;;5031354;28;20174;-72
2024/01/26 12:14:15;;;;;;;9.37;1.40;;;;;;;;;;5031340;28;20207;-71
2024/01/26 12:16:41;;;;;;;13.07;2.63;;;;;;;;;;5030347;28;20299;-72
2024/01/26 12:19:06;;;;;;;5.13;1.37;;;;;;;;;;5031168;28;20182;-73
2024/01/26 12:21:31;;;;;;;4.63;1.33;;;;;;;;;;5030884;28;20178;-73
2024/01/26 12:23:57;;;;;;;10.03;1.40;;;;;;;;;;5030937;28;20174;-72
2024/01/26 12:26:22;;;;;;;9.07;2.10;;;;;;;;;;5012667;28;20209;-72
2024/01/26 12:28:47;;;;;;;7.37;2.03;;;;;;;;;;5031149;28;20198;-72
2024/01/26 12:31:15;;;;;;;7.97;1.63;;;;;;;;;;5013275;28;20478;-72
2024/01/26 12:33:40;;;;;;;5.43;1.10;;;;;;;;;;5013541;28;20182;-71
2024/01/26 12:36:11;;;;;;;6.90;1.73;;;;;;;;;;5012509;28;20210;-72
2024/01/26 12:38:36;;;;;;;7.90;1.63;;;;;;;;;;5012348;28;20178;-72
2024/01/26 12:41:02;;;;;;;10.80;1.93;;;;;;;;;;5030327;28;20177;-72
2024/01/26 12:43:27;;;;;;;9.47;2.37;;;;;;;;;;5031250;28;20174;-72
2024/01/26 12:45:53;;;;;;;8.48;1.83;;;;;;;;;;5026852;28;20214;-72
2024/01/26 12:48:19;;;;;;;11.17;1.93;;;;;;;;;;5028315;28;20665;-73
2024/01/26 12:50:46;;;;;;;7.47;2.03;;;;;;;;;;5030541;28;20182;-72
2024/01/26 12:53:11;;;;;;;10.07;2.08;;;;;;;;;;5030783;28;20645;-70
2024/01/26 12:55:36;;;;;;;10.35;2.47;;;;;;;;;;5028613;28;20224;-71
2024/01/26 12:58:02;;;;;;;9.57;1.80;;;;;;;;;;5030105;28;20182;-70
2024/01/26 13:00:27;;;;;;;8.73;1.77;;;;;;;;;;5030743;28;20674;-71
2024/01/26 13:02:53;;;;;;;8.63;2.13;;;;;;;;;;5032054;28;20642;-70
2024/01/26 13:05:19;;;;;;;6.70;1.57;;;;;;;;;;5030617;28;20202;-72
2024/01/26 13:07:44;;;;;;;9.17;1.83;;;;;;;;;;5012665;28;20232;-72
2024/01/26 13:10:10;;;;;;;9.93;1.23;;;;;;;;;;5012458;28;20751;-71
2024/01/26 13:12:35;;;;;;;8.97;1.40;;;;;;;;;;5012997;28;20192;-72
2024/01/26 13:15:00;;;;;;;10.93;2.17;;;;;;;;;;5024120;28;20182;-72
2024/01/26 13:17:26;;;;;;;8.13;1.77;;;;;;;;;;5025405;28;20181;-72
2024/01/26 13:19:51;;;;;;;10.33;1.50;;;;;;;;;;5033070;28;20183;-71
2024/01/26 13:22:16;;;;;;;9.40;1.63;;;;;;;;;;5013982;28;20271;-72
2024/01/26 13:24:42;;;;;;;7.23;2.03;;;;;;;;;;5031860;28;20549;-72
2024/01/26 13:27:07;;;;;;;10.60;2.00;;;;;;;;;;5009136;28;20232;-71
2024/01/26 13:29:33;;;;;;;6.97;1.63;;;;;;;;;;5030385;28;20328;-71
2024/01/26 13:31:58;;;;;;;8.40;2.03;;;;;;;;;;5029632;28;20174;-71
2024/01/26 13:34:24;;;;;;;9.67;2.20;;;;;;;;;;5019262;28;20231;-73
2024/01/26 13:36:49;;;;;;;9.17;1.47;;;;;;;;;;5026715;28;20198;-71
2024/01/26 13:39:14;;;;;;;9.30;1.70;;;;;;;;;;5033132;28;20552;-72
2024/01/26 13:41:40;;;;;;;10.53;1.70;;;;;;;;;;5031837;28;20178;-71
2024/01/26 13:44:05;;;;;;;6.27;1.50;;;;;;;;;;5016591;28;20245;-71
2024/01/26 13:46:31;;;;;;;13.53;2.30;;;;;;;;;;5013381;28;20218;-71
2024/01/26 13:48:56;;;;;;;10.07;1.70;;;;;;;;;;5034552;28;20261;-71
2024/01/26 13:51:21;;;;;;;9.83;1.70;;;;;;;;;;5036492;28;20575;-71
2024/01/26 13:53:47;;;;;;;6.97;1.60;;;;;;;;;;5035336;28;20213;-72
2024/01/26 13:56:12;;;;;;;16.27;1.93;;;;;;;;;;5033371;28;20584;-71
2024/01/26 13:58:37;;;;;;;10.10;1.40;;;;;;;;;;5016417;28;20349;-72
2024/01/26 14:01:03;;;;;;;11.47;2.43;;;;;;;;;;5015167;28;20190;-71
2024/01/26 14:03:28;;;;;;;8.20;2.07;;;;;;;;;;5034269;28;20178;-71
2024/01/26 14:05:53;;;;;;;13.50;3.10;;;;;;;;;;5037424;28;20206;-71
2024/01/26 14:08:19;;;;;;;15.93;1.90;;;;;;;;;;5033751;28;20261;-71
2024/01/26 14:10:44;;;;;;;8.13;1.60;;;;;;;;;;5033660;28;20174;-71
2024/01/26 14:13:09;;;;;;;8.23;2.27;;;;;;;;;;5033852;28;20229;-71
2024/01/26 14:15:34;;;;;;;8.13;2.23;;;;;;;;;;5033826;28;20381;-70
2024/01/26 14:18:00;;;;;;;17.20;1.70;;;;;;;;;;5033197;28;20454;-72
2024/01/26 14:20:25;;;;;;;10.93;2.10;;;;;;;;;;5033656;28;20697;-71
2024/01/26 14:22:51;;;;;;;7.67;1.77;;;;;;;;;;5032346;28;20252;-71